Weather at Collingwood (General and Marine Hospital) Heliport

Public forecast

Using degrees Celsius for public forecast. Weather courtesy of forecast.io.

Closest aviation weather report (METAR) to Collingwood (General and Marine Hospital) Heliport

Report is more than 6 hours old.

Closest report is CFB Borden, 18.5 nm (34.3 km) SE. Retrieved 2020/11/16 00:00 UTC (8 days ago):

CYBN 160000Z AUTO 24020G42KT 05/01 A2937 RMK SLP951

Closest aviation forecast (TAF) to Collingwood (General and Marine Hospital) Heliport

Closest forecast is CFB Borden, 18.5 nm (34.3 km) SE. Retrieved 2020-11-24 00:33 UTC (6 hours ago):

TAF TAF CYBN 232330Z 2400/2412 FCST NOT AVBL DUE NO OBS RMK FCST BASED ON AUTO OBS NXT FCST BY 240600Z